• Join FlightAware (Why Join?)
  • Login
  • US Flag 
04:14AM EDT


 

Airport Tracker/Info


-or-


 

Live Flight TrackerFlight Track Log ✈ ASA301 ✈ 07-May-2013 ✈ KSFO - KSEA

Flight Track Log - Related Links

Times and Time Zones

All times are in EDT time to prevent confusion due to time zone crossing. See the ASA301 flight status page for this flight to view local times or setup timezone preferences in your user account.

Time Position Orientation Groundspeed Altitude Reporting Facility
EDT Latitude Longitude Course Direction KTS MPH feet Rate Location/Type
02:16PM 37.6317 -122.3611 North 163 188 38,000  Level Oakland Center
02:17PM 37.6642 -122.3192 46° Northeast 205 236 2,800 -15,840 Descending Oakland Center
02:18PM 37.7186 -122.2783 31° Northeast 238 274 5,600 3,000 Climbing Oakland Center
02:19PM 37.7892 -122.2803 359° North 253 291 8,900 3,240 Climbing Oakland Center
02:20PM 37.8842 -122.2783 North 280 322 12,300 2,940 Climbing Oakland Center
02:21PM 37.9775 -122.2756 North 329 379 15,000 2,820 Climbing Oakland Center
02:22PM 37.7364 -122.3534 North  Level FlightAware Approximate
02:22PM 38.0767 -122.2742 North 357 411 18,200  Level Oakland Center
02:23PM 38.1817 -122.2717 North 378 435 21,100 2,700 Climbing Oakland Center
02:24PM 38.2919 -122.2694 North 397 457 23,800 2,400 Climbing Oakland Center
02:25PM 38.4078 -122.2694 360° North 414 476 26,100 2,160 Climbing Oakland Center
02:26PM 38.5267 -122.2753 358° North 427 491 28,300 2,220 Climbing Oakland Center
02:27PM 38.6733 -122.2806 358° North 439 505 30,700 2,160 Climbing Oakland Center
02:28PM 38.7931 -122.2867 358° North 437 503 32,800 1,800 Climbing Oakland Center
02:29PM 38.9156 -122.2911 358° North 437 503 34,400 1,440 Climbing Oakland Center
02:30PM 39.0381 -122.2958 358° North 438 504 35,800 1,560 Climbing Oakland Center
02:32PM 39.1611 -122.3014 358° North 440 506 37,600 1,020 Climbing Oakland Center
02:33PM 39.2825 -122.3083 357° North 436 502 38,000 180 Climbing Oakland Center
02:34PM 39.4047 -122.3100 359° North 437 503 38,000  Level Oakland Center
02:35PM 39.5428 -122.3169 358° North 439 505 38,000  Level Oakland Center
02:36PM 39.6656 -122.3217 358° North 440 506 38,000  Level Oakland Center
02:37PM 39.7889 -122.3267 358° North 443 510 38,000  Level Oakland Center
02:38PM 39.9128 -122.3325 358° North 444 511 38,000  Level Oakland Center
02:39PM 40.0356 -122.3364 359° North 442 509 38,000  Level Oakland Center
02:40PM 40.1697 -122.3414 358° North 444 511 38,000  Level Oakland Center
02:41PM 40.2947 -122.3469 358° North 448 516 38,000  Level Oakland Center
02:42PM 40.4192 -122.3525 358° North 448 516 38,000  Level Oakland Center
02:43PM 40.5408 -122.3575 358° North 441 507 38,000  Level Oakland Center
02:44PM 40.6642 -122.3619 358° North 443 510 38,000  Level Oakland Center
02:45PM 40.7872 -122.3667 358° North 442 509 38,000  Level Oakland Center
02:46PM 40.9100 -122.3700 359° North 442 509 38,000  Level Oakland Center
02:47PM 41.0331 -122.3736 359° North 445 512 38,000  Level Oakland Center
02:48PM 41.1833 -122.3858 356° North 453 521 38,000  Level Oakland Center
02:49PM 41.3086 -122.3897 359° North 451 519 38,000  Level Oakland Center
02:50PM 41.4219 -122.3947 358° North 451 519 38,000  Level Seattle Center
02:51PM 41.5425 -122.3997 358° North 433 498 38,000  Level Seattle Center
02:52PM 41.6633 -122.4042 358° North 434 499 38,000  Level Seattle Center
02:53PM 41.7864 -122.4100 358° North 439 505 38,000  Level Seattle Center
02:54PM 41.9094 -122.4142 359° North 441 507 38,000  Level Seattle Center
02:55PM 42.0336 -122.4194 358° North 441 507 38,000  Level Seattle Center
02:56PM 42.1581 -122.4236 359° North 443 510 38,000  Level Seattle Center
02:57PM 42.2825 -122.4303 358° North 443 510 38,000  Level Seattle Center
02:58PM 42.4067 -122.4361 358° North 443 510 38,000  Level Seattle Center
02:59PM 42.5297 -122.4411 358° North 441 507 38,000  Level Seattle Center
03:00PM 42.6533 -122.4464 358° North 442 509 38,000  Level Seattle Center
03:01PM 42.7919 -122.4531 358° North 433 498 38,000  Level Seattle Center
03:02PM 42.9131 -122.4578 358° North 434 499 38,000  Level Seattle Center
03:03PM 43.0328 -122.4642 358° North 431 496 38,000  Level Seattle Center
03:04PM 43.1536 -122.4689 358° North 433 498 38,000  Level Seattle Center
03:05PM 43.2758 -122.4733 358° North 437 503 38,000  Level Seattle Center
03:06PM 43.3975 -122.4800 358° North 439 505 38,000  Level Seattle Center
03:07PM 43.5447 -122.4872 358° North 442 509 38,000  Level Seattle Center
03:08PM 43.6669 -122.4922 358° North 441 507 38,000  Level Seattle Center
03:09PM 43.7900 -122.4967 359° North 442 509 38,000  Level Seattle Center
03:10PM 43.9128 -122.5019 358° North 444 511 38,000  Level Seattle Center
03:11PM 44.0339 -122.5089 358° North 440 506 38,000  Level Seattle Center
03:12PM 44.1553 -122.5139 358° North 438 504 38,000  Level Seattle Center
03:13PM 44.2758 -122.5225 357° North 436 502 38,000  Level Seattle Center
03:14PM 44.3861 -122.4864 13° North 420 483 38,000  Level Seattle Center
03:15PM 44.4669 -122.3781 44° Northeast 405 466 38,000  Level Seattle Center
03:16PM 44.5450 -122.2731 44° Northeast 395 455 38,000  Level Seattle Center
03:17PM 44.6358 -122.1519 43° Northeast 380 437 38,000  Level Seattle Center
03:18PM 44.7097 -122.0500 44° Northeast 376 433 38,000  Level Seattle Center
03:19PM 44.8006 -121.9792 29° Northeast 393 452 38,000  Level Seattle Center
03:20PM 44.9008 -122.0300 340° North 421 484 38,000  Level Seattle Center
03:21PM 45.0047 -122.0981 335° Northwest 423 487 38,000  Level Seattle Center
03:22PM 45.1111 -122.1692 335° Northwest 425 489 38,000  Level Seattle Center
03:23PM 45.2181 -122.2383 336° Northwest 426 490 38,000 -120 Level Seattle Center
03:24PM 45.3461 -122.3233 335° Northwest 426 490 37,800 -1,260 Descending Seattle Center
03:25PM 45.4514 -122.3939 335° Northwest 421 484 35,500 -2,640 Descending Seattle Center
03:26PM 45.5586 -122.4633 336° Northwest 424 488 32,500 -2,880 Descending Seattle Center
03:28PM 45.6667 -122.5350 335° Northwest 429 494 29,700 -2,220 Descending Seattle Center
03:29PM 45.7750 -122.5989 338° Northwest 424 488 28,000 -840 Descending Seattle Center
03:30PM 45.8883 -122.6250 351° North 415 478 28,000  Level Seattle Center
03:31PM 46.0022 -122.6547 350° North 417 480 28,000  Level Seattle Center
03:32PM 46.1147 -122.6825 350° North 413 475 28,000  Level Seattle Center
03:33PM 46.2342 -122.7067 352° North 412 474 28,000  Level Seattle Center
03:34PM 46.3469 -122.7256 353° North 412 474 28,000 -1,260 Level Seattle Center
03:35PM 46.4586 -122.7164 North 408 470 25,500 -2,460 Descending Seattle Center
03:36PM 46.5672 -122.7153 360° North 396 456 23,100 -2,640 Descending Seattle Center
03:36PM 46.6419 -122.7117 North 384 442 21,500 -2,580 Descending Seattle Center
03:37PM 46.6933 -122.7094 North 381 438 20,500 -1,980 Descending Seattle Center
03:38PM 46.8064 -122.7042 North 363 418 18,300 -1,920 Descending Seattle Center
03:39PM 46.8792 -122.6294 35° Northeast 344 396 16,600 -1,740 Descending Seattle Center
03:40PM 46.9556 -122.5519 35° Northeast 338 389 15,000 -1,680 Descending Seattle Center
03:41PM 47.0419 -122.5169 15° North 323 372 13,200 -1,680 Descending Seattle Center
03:42PM 47.1328 -122.4889 12° North 311 358 11,600 -1,500 Descending Seattle Center
03:43PM 47.2153 -122.4761 North 301 346 10,200 -1,140 Descending Seattle Center
03:44PM 47.2833 -122.4656 North 274 315 9,400 -1,080 Descending Seattle Center
03:45PM 47.3608 -122.4542 North 258 297 8,100 -960 Descending Seattle Center
03:46PM 47.4208 -122.4558 359° North 231 266 7,500 -840 Descending Seattle Center
03:47PM 47.4889 -122.4553 360° North 222 255 6,400 -960 Descending Seattle Center
03:48PM 47.5494 -122.4550 360° North 217 250 5,500 -660 Descending Seattle Center
03:49PM 47.6147 -122.4511 North 217 250 5,100 -420 Descending Seattle Center
03:50PM 47.6456 -122.3867 55° Northeast 232 267 4,700 -660 Descending Seattle Center
03:51PM 47.6269 -122.3128 110° East 216 249 3,800 -1,140 Descending Seattle Center
03:52PM 47.5731 -122.3194 185° South 201 231 2,600 -1,200 Descending Seattle Center
03:53PM 47.5264 -122.3192 180° South 184 212 1,700 -840 Descending Seattle Center
03:54PM 47.4842 -122.3194 180° South 136 157 900 -600 Descending Seattle Center
03:55PM 47.4494 -122.3186 179° South 132 152 400 -480 Descending Seattle Center
03:57PM 47.4499 -122.3118 175° South  Level Estimated